Aérodrome :
LOGIN :

S'inscrire | Disclaimer

   EN    FR    IT 

 










Légende :    VFR   VFR Marginal   IFR   IFR Intensif   IFR Très Intensif
Visi : 
Plafond : 
>= 8 km
>= 3000ft
5 à 8 km
1000 à 3000 ft
1500m à 5 km
500 à 1000 ft
800 à 1500m
200 à 500 ft
< 800m
< 200 ft
Symboles :   Orages  Brouillard  Fortes neiges  Fortes précipitations  Vent > 20 kt
SIGMETs :   Divers  Orages  Givrage  Turbulence  Onde Orograph.  Cendres Volcan.






- Altitude de l'aérodrome : 290 ft
- Code IATA : ACI


EGJA - Alderney

DERNIER METAR :
  • 191750Z 27013KT CAVOK 18/13 Q1019

METARs EXPIRÉS :
  • 191720Z 27013KT CAVOK 19/14 Q1019
  • 191650Z 27013KT CAVOK 19/13 Q1018
  • 191620Z 26012KT CAVOK 19/13 Q1018
  • 191550Z 27015KT 9999 FEW007 19/14 Q1018
  • 191520Z 28013KT 9999 FEW007 20/14 Q1018

TAF TAF EGJA
Valide du 19 à 15h jusqu'au 20 à 00h UTC


191359Z 1915/2000 27012KT 9999 FEW010



MET'MAP, la Météo Aéronautique d'un coup d'oeil ! - Copyright ORBIFLY Décembre 2007 - Disclaimer

ORBIFLY MET'MAP TEAM :

Programmation & Développement : Alexandra Zaïnal
Sur une idée originale de : Baudouin d'Aumeries
Soutien technique & logistique : Manuel Goepfert
Assistance : Marc-Olivier Méhu




SOURCES & CREDITS :

   NOAA